sensor_id;sensor_type;location;lat;lon;timestamp;pressure;altitude;pressure_sealevel;temperature;humidity
7180;BME280;3631;42.152;24.756;2023-03-19T14:52:33;99574.31;;;17.01;42.76
7180;BME280;3631;42.152;24.756;2023-03-19T14:55:49;99576.34;;;17.12;42.69
7180;BME280;3631;42.152;24.756;2023-03-19T14:59:00;99574.16;;;17.20;40.73
7180;BME280;3631;42.152;24.756;2023-03-19T15:01:43;99571.28;;;17.24;42.02
7180;BME280;3631;42.152;24.756;2023-03-19T15:04:35;99575.16;;;17.17;40.57
7180;BME280;3631;42.152;24.756;2023-03-19T15:11:05;99578.53;;;17.19;41.27
7180;BME280;3631;42.152;24.756;2023-03-19T15:14:23;99575.75;;;17.22;41.12
7180;BME280;3631;42.152;24.756;2023-03-19T15:17:22;99575.91;;;17.19;41.11
7180;BME280;3631;42.152;24.756;2023-03-19T15:20:08;99570.09;;;17.14;42.45
7180;BME280;3631;42.152;24.756;2023-03-19T15:23:04;99569.72;;;17.04;44.07
7180;BME280;3631;42.152;24.756;2023-03-19T15:25:58;99584.72;;;17.18;43.20
7180;BME280;3631;42.152;24.756;2023-03-19T15:28:55;99589.31;;;17.15;41.74
7180;BME280;3631;42.152;24.756;2023-03-19T15:32:01;99571.00;;;16.97;42.33
7180;BME280;3631;42.152;24.756;2023-03-19T15:34:59;99591.09;;;17.14;42.42
7180;BME280;3631;42.152;24.756;2023-03-19T15:37:55;99586.69;;;17.15;42.10
7180;BME280;3631;42.152;24.756;2023-03-19T15:40:49;99584.53;;;17.05;42.26
7180;BME280;3631;42.152;24.756;2023-03-19T15:43:44;99579.56;;;17.01;43.81
7180;BME280;3631;42.152;24.756;2023-03-19T15:46:29;99578.53;;;16.88;42.30
7180;BME280;3631;42.152;24.756;2023-03-19T15:49:15;99592.56;;;16.87;42.32
7180;BME280;3631;42.152;24.756;2023-03-19T15:52:13;99593.75;;;16.81;45.41
7180;BME280;3631;42.152;24.756;2023-03-19T15:55:11;99599.00;;;16.64;46.50
7180;BME280;3631;42.152;24.756;2023-03-19T15:58:03;99600.09;;;16.43;45.38
7180;BME280;3631;42.152;24.756;2023-03-19T16:00:39;99604.06;;;16.50;44.42
7180;BME280;3631;42.152;24.756;2023-03-19T16:03:17;99602.00;;;16.56;43.36
7180;BME280;3631;42.152;24.756;2023-03-19T16:06:01;99601.53;;;16.48;45.92
7180;BME280;3631;42.152;24.756;2023-03-19T16:08:34;99613.63;;;16.51;43.74
7180;BME280;3631;42.152;24.756;2023-03-19T16:11:36;99615.72;;;16.44;43.74
7180;BME280;3631;42.152;24.756;2023-03-19T16:14:21;99619.72;;;16.51;44.16
7180;BME280;3631;42.152;24.756;2023-03-19T16:17:08;99620.91;;;16.46;45.04
7180;BME280;3631;42.152;24.756;2023-03-19T16:20:02;99624.50;;;16.43;45.87
7180;BME280;3631;42.152;24.756;2023-03-19T16:22:58;99620.41;;;16.38;45.25
7180;BME280;3631;42.152;24.756;2023-03-19T16:25:46;99619.56;;;16.37;47.97
7180;BME280;3631;42.152;24.756;2023-03-19T16:28:22;99625.28;;;16.28;45.37
7180;BME280;3631;42.152;24.756;2023-03-19T16:31:13;99630.13;;;16.18;44.92
7180;BME280;3631;42.152;24.756;2023-03-19T16:34:04;99624.38;;;16.12;44.60
7180;BME280;3631;42.152;24.756;2023-03-19T16:37:00;99625.88;;;16.16;45.84
7180;BME280;3631;42.152;24.756;2023-03-19T16:39:58;99632.38;;;16.09;45.39
7180;BME280;3631;42.152;24.756;2023-03-19T16:42:50;99634.34;;;16.04;45.74
7180;BME280;3631;42.152;24.756;2023-03-19T16:45:34;99634.59;;;15.99;45.50
7180;BME280;3631;42.152;24.756;2023-03-19T16:48:27;99637.28;;;15.97;45.73
7180;BME280;3631;42.152;24.756;2023-03-19T16:51:20;99622.31;;;15.82;46.40
7180;BME280;3631;42.152;24.756;2023-03-19T16:54:12;99648.22;;;15.88;45.89
7180;BME280;3631;42.152;24.756;2023-03-19T16:57:09;99648.56;;;15.81;46.14
7180;BME280;3631;42.152;24.756;2023-03-19T17:00:01;99646.91;;;15.61;49.24
7180;BME280;3631;42.152;24.756;2023-03-19T17:02:56;99653.97;;;15.59;48.07
7180;BME280;3631;42.152;24.756;2023-03-19T17:06:07;99659.44;;;15.54;47.69
7180;BME280;3631;42.152;24.756;2023-03-19T17:08:49;99672.13;;;15.43;47.81
7180;BME280;3631;42.152;24.756;2023-03-19T17:11:28;99676.03;;;15.35;49.34
7180;BME280;3631;42.152;24.756;2023-03-19T17:14:19;99678.34;;;15.41;48.12
7180;BME280;3631;42.152;24.756;2023-03-19T17:16:53;99682.84;;;15.37;48.04
7180;BME280;3631;42.152;24.756;2023-03-19T17:19:40;99677.78;;;15.34;48.28
7180;BME280;3631;42.152;24.756;2023-03-19T17:22:32;99691.91;;;15.30;48.20
7180;BME280;3631;42.152;24.756;2023-03-19T17:25:14;99693.25;;;15.20;48.87
7180;BME280;3631;42.152;24.756;2023-03-19T17:28:04;99691.03;;;15.11;49.03
7180;BME280;3631;42.152;24.756;2023-03-19T17:30:48;99689.59;;;15.04;48.83
7180;BME280;3631;42.152;24.756;2023-03-19T17:33:29;99674.31;;;14.95;50.75
7180;BME280;3631;42.152;24.756;2023-03-19T17:36:08;99696.09;;;14.95;49.96
7180;BME280;3631;42.152;24.756;2023-03-19T17:38:57;99701.72;;;14.86;51.05
7180;BME280;3631;42.152;24.756;2023-03-19T17:41:31;99701.84;;;14.83;50.19
7180;BME280;3631;42.152;24.756;2023-03-19T17:44:02;99706.09;;;14.85;50.54
7180;BME280;3631;42.152;24.756;2023-03-19T17:46:59;99706.56;;;14.75;50.90
7180;BME280;3631;42.152;24.756;2023-03-19T17:49:52;99707.13;;;14.61;51.08
7180;BME280;3631;42.152;24.756;2023-03-19T17:52:45;99715.03;;;14.60;52.63
7180;BME280;3631;42.152;24.756;2023-03-19T17:55:35;99718.94;;;14.49;54.98
7180;BME280;3631;42.152;24.756;2023-03-19T17:58:15;99717.91;;;14.53;54.69
7180;BME280;3631;42.152;24.756;2023-03-19T18:00:46;99720.38;;;14.57;54.73
7180;BME280;3631;42.152;24.756;2023-03-19T18:03:21;99719.53;;;14.56;54.54
7180;BME280;3631;42.152;24.756;2023-03-19T18:06:05;99720.75;;;14.47;54.67
7180;BME280;3631;42.152;24.756;2023-03-19T18:08:35;99717.97;;;14.52;53.32
7180;BME280;3631;42.152;24.756;2023-03-19T18:11:14;99720.38;;;14.35;52.66
7180;BME280;3631;42.152;24.756;2023-03-19T18:13:57;99730.47;;;14.22;53.53
7180;BME280;3631;42.152;24.756;2023-03-19T18:16:36;99726.47;;;14.13;53.44
7180;BME280;3631;42.152;24.756;2023-03-19T18:19:23;99726.47;;;14.13;53.33
7180;BME280;3631;42.152;24.756;2023-03-19T18:22:12;99727.44;;;14.11;53.27
7180;BME280;3631;42.152;24.756;2023-03-19T18:24:50;99741.59;;;14.05;53.47
7180;BME280;3631;42.152;24.756;2023-03-19T18:27:21;99736.81;;;13.95;54.07
7180;BME280;3631;42.152;24.756;2023-03-19T18:29:54;99739.34;;;13.74;54.33
7180;BME280;3631;42.152;24.756;2023-03-19T18:32:29;99744.75;;;13.68;54.71
7180;BME280;3631;42.152;24.756;2023-03-19T18:35:08;99743.97;;;13.66;54.76
7180;BME280;3631;42.152;24.756;2023-03-19T18:38:11;99751.47;;;13.52;55.52
7180;BME280;3631;42.152;24.756;2023-03-19T18:41:18;99749.31;;;13.40;55.79
7180;BME280;3631;42.152;24.756;2023-03-19T18:44:14;99748.53;;;13.38;56.47
7180;BME280;3631;42.152;24.756;2023-03-19T18:46:54;99752.72;;;13.42;56.66
7180;BME280;3631;42.152;24.756;2023-03-19T18:49:44;99761.19;;;13.24;56.56
7180;BME280;3631;42.152;24.756;2023-03-19T18:52:32;99755.47;;;13.14;56.85
7180;BME280;3631;42.152;24.756;2023-03-19T18:55:11;99755.47;;;13.14;57.97
7180;BME280;3631;42.152;24.756;2023-03-19T18:58:08;99766.75;;;13.15;59.13
7180;BME280;3631;42.152;24.756;2023-03-19T19:01:16;99769.34;;;13.15;57.86
7180;BME280;3631;42.152;24.756;2023-03-19T19:04:10;99769.53;;;13.08;57.93
7180;BME280;3631;42.152;24.756;2023-03-19T19:07:04;99768.94;;;13.00;58.23
7180;BME280;3631;42.152;24.756;2023-03-19T19:10:04;99776.75;;;13.00;59.34
7180;BME280;3631;42.152;24.756;2023-03-19T19:13:05;99774.28;;;12.97;58.97
7180;BME280;3631;42.152;24.756;2023-03-19T19:16:08;99773.50;;;12.69;59.58
7180;BME280;3631;42.152;24.756;2023-03-19T19:18:57;99777.91;;;12.67;60.20
7180;BME280;3631;42.152;24.756;2023-03-19T19:21:29;99790.22;;;12.62;60.67
7180;BME280;3631;42.152;24.756;2023-03-19T19:23:59;99780.75;;;12.59;61.00
7180;BME280;3631;42.152;24.756;2023-03-19T19:26:33;99787.50;;;12.65;60.66
7180;BME280;3631;42.152;24.756;2023-03-19T19:29:19;99790.31;;;12.59;61.69
7180;BME280;3631;42.152;24.756;2023-03-19T19:32:21;99794.94;;;12.51;62.14
7180;BME280;3631;42.152;24.756;2023-03-19T19:35:16;99791.91;;;12.36;62.63
7180;BME280;3631;42.152;24.756;2023-03-19T19:37:56;99799.59;;;12.13;63.55
7180;BME280;3631;42.152;24.756;2023-03-19T19:40:40;99801.53;;;12.07;68.11
7180;BME280;3631;42.152;24.756;2023-03-19T19:43:30;99814.63;;;12.04;67.66
7180;BME280;3631;42.152;24.756;2023-03-19T19:46:32;99809.81;;;11.90;68.65
7180;BME280;3631;42.152;24.756;2023-03-19T19:49:25;99803.06;;;11.84;71.07
7180;BME280;3631;42.152;24.756;2023-03-19T19:52:02;99798.75;;;11.83;70.72
7180;BME280;3631;42.152;24.756;2023-03-19T19:54:43;99806.75;;;11.76;71.72
7180;BME280;3631;42.152;24.756;2023-03-19T19:57:18;99804.59;;;11.60;72.51
7180;BME280;3631;42.152;24.756;2023-03-19T19:59:52;99812.38;;;11.60;73.51
7180;BME280;3631;42.152;24.756;2023-03-19T20:02:41;99823.75;;;11.56;73.99
7180;BME280;3631;42.152;24.756;2023-03-19T20:05:38;99820.34;;;11.54;74.01
7180;BME280;3631;42.152;24.756;2023-03-19T20:08:12;99818.91;;;11.44;74.94
7180;BME280;3631;42.152;24.756;2023-03-19T20:10:49;99813.94;;;11.35;75.15
7180;BME280;3631;42.152;24.756;2023-03-19T20:13:27;99817.41;;;11.36;75.12
7180;BME280;3631;42.152;24.756;2023-03-19T20:16:03;99814.91;;;11.31;75.49
7180;BME280;3631;42.152;24.756;2023-03-19T20:18:43;99822.84;;;11.26;76.16
7180;BME280;3631;42.152;24.756;2023-03-19T20:21:29;99820.47;;;11.17;77.35
7180;BME280;3631;42.152;24.756;2023-03-19T20:24:03;99819.09;;;11.06;78.96
7180;BME280;3631;42.152;24.756;2023-03-19T20:26:34;99815.50;;;11.10;79.04
7180;BME280;3631;42.152;24.756;2023-03-19T20:29:18;99822.63;;;11.02;80.02
7180;BME280;3631;42.152;24.756;2023-03-19T20:31:53;99830.75;;;10.89;81.23
7180;BME280;3631;42.152;24.756;2023-03-19T20:34:34;99824.72;;;10.87;81.00
7180;BME280;3631;42.152;24.756;2023-03-19T20:37:12;99830.94;;;10.82;81.34
7180;BME280;3631;42.152;24.756;2023-03-19T20:39:43;99833.53;;;10.82;82.87
7180;BME280;3631;42.152;24.756;2023-03-19T20:42:18;99829.50;;;10.70;84.79
7180;BME280;3631;42.152;24.756;2023-03-19T20:45:03;99821.78;;;10.67;84.39
7180;BME280;3631;42.152;24.756;2023-03-19T20:47:51;99833.94;;;10.65;84.97
7180;BME280;3631;42.152;24.756;2023-03-19T20:50:41;99834.66;;;10.72;84.55
7180;BME280;3631;42.152;24.756;2023-03-19T20:53:35;99837.41;;;10.64;84.94
7180;BME280;3631;42.152;24.756;2023-03-19T20:56:47;99838.91;;;10.74;84.60
7180;BME280;3631;42.152;24.756;2023-03-19T20:59:36;99837.19;;;10.73;83.90
7180;BME280;3631;42.152;24.756;2023-03-19T21:02:31;99847.63;;;10.72;84.21
7180;BME280;3631;42.152;24.756;2023-03-19T21:05:21;99850.16;;;10.73;84.62
7180;BME280;3631;42.152;24.756;2023-03-19T21:11:23;99863.09;;;10.76;83.71
7180;BME280;3631;42.152;24.756;2023-03-19T21:14:13;99863.25;;;10.70;84.13
7180;BME280;3631;42.152;24.756;2023-03-19T21:16:46;99869.19;;;10.74;83.48
7180;BME280;3631;42.152;24.756;2023-03-19T21:19:21;99874.56;;;10.66;84.40
7180;BME280;3631;42.152;24.756;2023-03-19T21:22:00;99868.69;;;10.60;85.08
7180;BME280;3631;42.152;24.756;2023-03-19T21:24:49;99853.44;;;10.46;85.52
7180;BME280;3631;42.152;24.756;2023-03-19T21:27:29;99868.00;;;10.51;85.91
7180;BME280;3631;42.152;24.756;2023-03-19T21:30:09;99870.63;;;10.50;86.47
7180;BME280;3631;42.152;24.756;2023-03-19T21:32:46;99875.03;;;10.46;86.93
7180;BME280;3631;42.152;24.756;2023-03-19T21:35:17;99877.78;;;10.39;87.18
7180;BME280;3631;42.152;24.756;2023-03-19T21:38:01;99869.53;;;10.22;89.05
7180;BME280;3631;42.152;24.756;2023-03-19T21:41:02;99875.34;;;10.33;88.62
7180;BME280;3631;42.152;24.756;2023-03-19T21:44:08;99877.94;;;10.33;88.17
7180;BME280;3631;42.152;24.756;2023-03-19T21:47:03;99880.28;;;10.43;87.65
7180;BME280;3631;42.152;24.756;2023-03-19T21:50:00;99882.84;;;10.46;87.38
7180;BME280;3631;42.152;24.756;2023-03-19T21:52:51;99882.22;;;10.35;87.53
7180;BME280;3631;42.152;24.756;2023-03-19T21:55:28;99888.31;;;10.33;88.30
7180;BME280;3631;42.152;24.756;2023-03-19T21:58:00;99888.16;;;10.39;87.55
7180;BME280;3631;42.152;24.756;2023-03-19T22:00:41;99890.03;;;10.34;87.59
7180;BME280;3631;42.152;24.756;2023-03-19T22:03:17;99891.75;;;10.35;87.54
7180;BME280;3631;42.152;24.756;2023-03-19T22:06:07;99890.88;;;10.34;88.12
7180;BME280;3631;42.152;24.756;2023-03-19T22:08:48;99891.13;;;10.24;88.30
7180;BME280;3631;42.152;24.756;2023-03-19T22:11:36;99888.59;;;10.21;88.45
7180;BME280;3631;42.152;24.756;2023-03-19T22:14:27;99891.09;;;10.25;88.69
7180;BME280;3631;42.152;24.756;2023-03-19T22:17:21;99874.94;;;10.09;89.38
7180;BME280;3631;42.152;24.756;2023-03-19T22:20:21;99887.03;;;10.10;89.54
7180;BME280;3631;42.152;24.756;2023-03-19T22:23:20;99884.66;;;10.00;90.15
7180;BME280;3631;42.152;24.756;2023-03-19T22:26:27;99859.13;;;9.81;90.97
7180;BME280;3631;42.152;24.756;2023-03-19T22:29:23;99892.28;;;10.07;90.08
7180;BME280;3631;42.152;24.756;2023-03-19T22:32:38;99882.97;;;9.97;90.72
7180;BME280;3631;42.152;24.756;2023-03-19T22:35:27;99877.91;;;9.93;90.57
7180;BME280;3631;42.152;24.756;2023-03-19T22:38:19;99882.31;;;9.88;91.32
7180;BME280;3631;42.152;24.756;2023-03-19T22:41:30;99878.09;;;9.82;91.88
7180;BME280;3631;42.152;24.756;2023-03-19T22:44:33;99877.16;;;9.86;91.26
7180;BME280;3631;42.152;24.756;2023-03-19T22:47:44;99869.41;;;9.84;91.67
7180;BME280;3631;42.152;24.756;2023-03-19T22:50:41;99876.34;;;9.82;91.92
7180;BME280;3631;42.152;24.756;2023-03-19T22:53:35;99873.69;;;9.87;91.54
7180;BME280;3631;42.152;24.756;2023-03-19T22:56:43;99879.00;;;9.81;91.45
7180;BME280;3631;42.152;24.756;2023-03-19T22:59:35;99879.94;;;9.77;91.56
7180;BME280;3631;42.152;24.756;2023-03-19T23:05:42;99876.16;;;9.48;93.94
7180;BME280;3631;42.152;24.756;2023-03-19T23:08:27;99875.50;;;9.37;95.45
7180;BME280;3631;42.152;24.756;2023-03-19T23:11:23;99867.91;;;9.28;94.69
7180;BME280;3631;42.152;24.756;2023-03-19T23:14:07;99877.34;;;9.31;94.86
7180;BME280;3631;42.152;24.756;2023-03-19T23:17:16;99880.63;;;9.40;94.25
7180;BME280;3631;42.152;24.756;2023-03-19T23:20:19;99886.00;;;9.31;93.69
7180;BME280;3631;42.152;24.756;2023-03-19T23:23:13;99891.22;;;9.27;94.11
7180;BME280;3631;42.152;24.756;2023-03-19T23:25:46;99901.69;;;9.22;94.52
7180;BME280;3631;42.152;24.756;2023-03-19T23:28:40;99897.59;;;9.09;94.66
7180;BME280;3631;42.152;24.756;2023-03-19T23:31:38;99899.41;;;9.04;95.31
7180;BME280;3631;42.152;24.756;2023-03-19T23:34:35;99896.88;;;9.01;94.91
7180;BME280;3631;42.152;24.756;2023-03-19T23:37:29;99895.25;;;8.94;94.52
7180;BME280;3631;42.152;24.756;2023-03-19T23:40:26;99895.25;;;8.94;94.11
7180;BME280;3631;42.152;24.756;2023-03-19T23:43:27;99887.47;;;8.94;94.06
7180;BME280;3631;42.152;24.756;2023-03-19T23:46:29;99887.56;;;8.91;93.30
7180;BME280;3631;42.152;24.756;2023-03-19T23:49:28;99885.03;;;8.85;92.70
7180;BME280;3631;42.152;24.756;2023-03-19T23:52:20;99875.69;;;8.78;93.23
7180;BME280;3631;42.152;24.756;2023-03-19T23:55:04;99868.00;;;8.70;93.60
7180;BME280;3631;42.152;24.756;2023-03-19T23:58:19;99865.31;;;8.79;93.05
